sensor_id;sensor_type;location;lat;lon;timestamp;temperature;humidity
51902;DHT22;37929;53.218;6.548;2023-04-25T00:02:18;6.90;99.90
51902;DHT22;37929;53.218;6.548;2023-04-25T00:04:44;6.80;99.90
51902;DHT22;37929;53.218;6.548;2023-04-25T00:07:10;6.80;99.90
51902;DHT22;37929;53.218;6.548;2023-04-25T00:09:36;6.80;99.90
51902;DHT22;37929;53.218;6.548;2023-04-25T00:12:02;6.80;99.90
51902;DHT22;37929;53.218;6.548;2023-04-25T00:14:29;6.80;99.90
51902;DHT22;37929;53.218;6.548;2023-04-25T00:16:55;6.80;99.90
51902;DHT22;37929;53.218;6.548;2023-04-25T00:19:20;6.80;99.90
51902;DHT22;37929;53.218;6.548;2023-04-25T00:21:46;6.80;99.90
51902;DHT22;37929;53.218;6.548;2023-04-25T00:24:12;6.80;99.90
51902;DHT22;37929;53.218;6.548;2023-04-25T00:26:38;6.80;99.90
51902;DHT22;37929;53.218;6.548;2023-04-25T00:29:04;6.80;99.90
51902;DHT22;37929;53.218;6.548;2023-04-25T00:31:30;6.80;99.90
51902;DHT22;37929;53.218;6.548;2023-04-25T00:33:56;6.80;99.90
51902;DHT22;37929;53.218;6.548;2023-04-25T00:36:22;6.80;99.90
51902;DHT22;37929;53.218;6.548;2023-04-25T00:38:47;6.80;99.90
51902;DHT22;37929;53.218;6.548;2023-04-25T00:41:13;6.80;99.90
51902;DHT22;37929;53.218;6.548;2023-04-25T00:43:40;6.90;99.90
51902;DHT22;37929;53.218;6.548;2023-04-25T00:46:06;7.00;99.90
51902;DHT22;37929;53.218;6.548;2023-04-25T00:48:31;6.80;99.90
51902;DHT22;37929;53.218;6.548;2023-04-25T00:50:58;7.20;99.90
51902;DHT22;37929;53.218;6.548;2023-04-25T00:53:26;6.80;99.90
51902;DHT22;37929;53.218;6.548;2023-04-25T00:55:53;6.80;99.90
51902;DHT22;37929;53.218;6.548;2023-04-25T00:58:20;6.80;99.90
51902;DHT22;37929;53.218;6.548;2023-04-25T01:00:47;6.70;99.90
51902;DHT22;37929;53.218;6.548;2023-04-25T01:03:17;6.70;99.90
51902;DHT22;37929;53.218;6.548;2023-04-25T01:05:45;7.20;99.90
51902;DHT22;37929;53.218;6.548;2023-04-25T01:08:13;6.70;99.90
51902;DHT22;37929;53.218;6.548;2023-04-25T01:10:38;6.70;99.90
51902;DHT22;37929;53.218;6.548;2023-04-25T01:13:04;6.60;99.90
51902;DHT22;37929;53.218;6.548;2023-04-25T01:15:30;6.60;99.90
51902;DHT22;37929;53.218;6.548;2023-04-25T01:17:57;6.60;99.90
51902;DHT22;37929;53.218;6.548;2023-04-25T01:20:24;6.60;99.90
51902;DHT22;37929;53.218;6.548;2023-04-25T01:22:54;6.70;99.90
51902;DHT22;37929;53.218;6.548;2023-04-25T01:25:22;6.60;99.90
51902;DHT22;37929;53.218;6.548;2023-04-25T01:27:48;6.80;99.90
51902;DHT22;37929;53.218;6.548;2023-04-25T01:30:14;6.60;99.90
51902;DHT22;37929;53.218;6.548;2023-04-25T01:32:41;6.60;99.90
51902;DHT22;37929;53.218;6.548;2023-04-25T01:35:09;6.60;99.90
51902;DHT22;37929;53.218;6.548;2023-04-25T01:37:42;6.60;99.90
51902;DHT22;37929;53.218;6.548;2023-04-25T01:40:10;6.60;99.90
51902;DHT22;37929;53.218;6.548;2023-04-25T01:42:38;6.60;99.90
51902;DHT22;37929;53.218;6.548;2023-04-25T01:45:05;6.60;99.90
51902;DHT22;37929;53.218;6.548;2023-04-25T01:47:32;6.60;99.90
51902;DHT22;37929;53.218;6.548;2023-04-25T01:49:57;6.60;99.90
51902;DHT22;37929;53.218;6.548;2023-04-25T01:52:23;6.60;99.90
51902;DHT22;37929;53.218;6.548;2023-04-25T01:54:49;6.60;99.90
51902;DHT22;37929;53.218;6.548;2023-04-25T01:57:16;6.60;99.90
51902;DHT22;37929;53.218;6.548;2023-04-25T01:59:42;6.60;99.90
51902;DHT22;37929;53.218;6.548;2023-04-25T02:02:08;6.60;99.90
51902;DHT22;37929;53.218;6.548;2023-04-25T02:04:34;6.60;99.90
51902;DHT22;37929;53.218;6.548;2023-04-25T02:06:59;6.60;99.90
51902;DHT22;37929;53.218;6.548;2023-04-25T02:09:25;6.60;99.90
51902;DHT22;37929;53.218;6.548;2023-04-25T02:11:51;6.60;99.90
51902;DHT22;37929;53.218;6.548;2023-04-25T02:14:16;6.70;99.90
51902;DHT22;37929;53.218;6.548;2023-04-25T02:16:42;6.60;99.90
51902;DHT22;37929;53.218;6.548;2023-04-25T02:19:09;6.50;99.90
51902;DHT22;37929;53.218;6.548;2023-04-25T02:21:36;6.50;99.90
51902;DHT22;37929;53.218;6.548;2023-04-25T02:24:02;6.50;99.90
51902;DHT22;37929;53.218;6.548;2023-04-25T02:26:29;6.50;99.90
51902;DHT22;37929;53.218;6.548;2023-04-25T02:28:56;6.40;99.90
51902;DHT22;37929;53.218;6.548;2023-04-25T02:31:22;6.40;99.90
51902;DHT22;37929;53.218;6.548;2023-04-25T02:33:48;6.40;99.90
51902;DHT22;37929;53.218;6.548;2023-04-25T02:36:14;6.40;99.90
51902;DHT22;37929;53.218;6.548;2023-04-25T02:38:40;6.40;99.90
51902;DHT22;37929;53.218;6.548;2023-04-25T02:41:06;6.40;99.90
51902;DHT22;37929;53.218;6.548;2023-04-25T02:43:32;6.40;99.90
51902;DHT22;37929;53.218;6.548;2023-04-25T02:45:57;6.80;99.90
51902;DHT22;37929;53.218;6.548;2023-04-25T02:48:23;6.30;99.90
51902;DHT22;37929;53.218;6.548;2023-04-25T02:50:49;6.30;99.90
51902;DHT22;37929;53.218;6.548;2023-04-25T02:53:14;6.30;99.90
51902;DHT22;37929;53.218;6.548;2023-04-25T02:55:40;6.30;99.90
51902;DHT22;37929;53.218;6.548;2023-04-25T02:58:06;6.30;99.90
51902;DHT22;37929;53.218;6.548;2023-04-25T03:00:32;6.30;99.90
51902;DHT22;37929;53.218;6.548;2023-04-25T03:02:58;6.30;99.90
51902;DHT22;37929;53.218;6.548;2023-04-25T03:05:24;6.30;99.90
51902;DHT22;37929;53.218;6.548;2023-04-25T03:07:49;6.20;99.90
51902;DHT22;37929;53.218;6.548;2023-04-25T03:10:15;6.20;99.90
51902;DHT22;37929;53.218;6.548;2023-04-25T03:12:41;6.30;99.90
51902;DHT22;37929;53.218;6.548;2023-04-25T03:15:07;6.30;99.90
51902;DHT22;37929;53.218;6.548;2023-04-25T03:17:33;6.30;99.90
51902;DHT22;37929;53.218;6.548;2023-04-25T03:20:02;6.30;99.90
51902;DHT22;37929;53.218;6.548;2023-04-25T03:22:29;6.20;99.90
51902;DHT22;37929;53.218;6.548;2023-04-25T03:24:55;6.20;99.90
51902;DHT22;37929;53.218;6.548;2023-04-25T03:27:21;6.20;99.90
51902;DHT22;37929;53.218;6.548;2023-04-25T03:29:47;6.20;99.90
51902;DHT22;37929;53.218;6.548;2023-04-25T03:32:13;6.10;99.90
51902;DHT22;37929;53.218;6.548;2023-04-25T03:34:38;6.10;99.90
51902;DHT22;37929;53.218;6.548;2023-04-25T03:37:04;6.10;99.90
51902;DHT22;37929;53.218;6.548;2023-04-25T03:39:30;6.00;99.90
51902;DHT22;37929;53.218;6.548;2023-04-25T03:41:55;6.00;99.90
51902;DHT22;37929;53.218;6.548;2023-04-25T03:44:21;6.00;99.90
51902;DHT22;37929;53.218;6.548;2023-04-25T03:46:47;5.90;99.90
51902;DHT22;37929;53.218;6.548;2023-04-25T03:49:13;5.90;99.90
51902;DHT22;37929;53.218;6.548;2023-04-25T03:51:39;5.90;99.90
51902;DHT22;37929;53.218;6.548;2023-04-25T03:54:04;5.90;99.90
51902;DHT22;37929;53.218;6.548;2023-04-25T03:56:30;5.90;99.90
51902;DHT22;37929;53.218;6.548;2023-04-25T03:58:56;5.80;99.90
51902;DHT22;37929;53.218;6.548;2023-04-25T04:01:21;5.90;99.90
51902;DHT22;37929;53.218;6.548;2023-04-25T04:03:48;5.90;99.90
51902;DHT22;37929;53.218;6.548;2023-04-25T04:06:13;5.90;99.90
51902;DHT22;37929;53.218;6.548;2023-04-25T04:08:40;5.80;99.90
51902;DHT22;37929;53.218;6.548;2023-04-25T04:11:06;5.90;99.90
51902;DHT22;37929;53.218;6.548;2023-04-25T04:13:31;5.80;99.90
51902;DHT22;37929;53.218;6.548;2023-04-25T04:15:57;5.80;99.90
51902;DHT22;37929;53.218;6.548;2023-04-25T04:18:23;5.80;99.90
51902;DHT22;37929;53.218;6.548;2023-04-25T04:20:49;5.80;99.90
51902;DHT22;37929;53.218;6.548;2023-04-25T04:23:15;6.40;99.90
51902;DHT22;37929;53.218;6.548;2023-04-25T04:25:41;5.80;99.90
51902;DHT22;37929;53.218;6.548;2023-04-25T04:28:07;5.70;99.90
51902;DHT22;37929;53.218;6.548;2023-04-25T04:30:33;5.70;99.90
51902;DHT22;37929;53.218;6.548;2023-04-25T04:33:03;5.70;99.90
51902;DHT22;37929;53.218;6.548;2023-04-25T04:35:29;5.70;99.90
51902;DHT22;37929;53.218;6.548;2023-04-25T04:37:55;5.70;99.90
51902;DHT22;37929;53.218;6.548;2023-04-25T04:40:21;5.60;99.90
51902;DHT22;37929;53.218;6.548;2023-04-25T04:42:47;6.20;99.90
51902;DHT22;37929;53.218;6.548;2023-04-25T04:45:16;5.60;99.90
51902;DHT22;37929;53.218;6.548;2023-04-25T04:47:42;6.10;99.90
51902;DHT22;37929;53.218;6.548;2023-04-25T04:50:09;5.60;99.90
51902;DHT22;37929;53.218;6.548;2023-04-25T04:52:36;5.60;99.90
51902;DHT22;37929;53.218;6.548;2023-04-25T04:55:03;5.60;99.90
51902;DHT22;37929;53.218;6.548;2023-04-25T04:57:29;5.70;99.90
51902;DHT22;37929;53.218;6.548;2023-04-25T04:59:56;5.80;99.90
51902;DHT22;37929;53.218;6.548;2023-04-25T05:02:22;5.70;99.90
51902;DHT22;37929;53.218;6.548;2023-04-25T05:04:48;5.70;99.90
51902;DHT22;37929;53.218;6.548;2023-04-25T05:07:14;5.70;99.90
51902;DHT22;37929;53.218;6.548;2023-04-25T05:09:40;5.70;99.90
51902;DHT22;37929;53.218;6.548;2023-04-25T05:12:06;5.70;99.90
51902;DHT22;37929;53.218;6.548;2023-04-25T05:14:32;5.60;99.90
51902;DHT22;37929;53.218;6.548;2023-04-25T05:16:57;6.10;99.90
51902;DHT22;37929;53.218;6.548;2023-04-25T05:19:23;5.60;99.90
51902;DHT22;37929;53.218;6.548;2023-04-25T05:21:49;5.70;99.90
51902;DHT22;37929;53.218;6.548;2023-04-25T05:24:15;5.70;99.90
51902;DHT22;37929;53.218;6.548;2023-04-25T05:26:41;5.60;99.90
51902;DHT22;37929;53.218;6.548;2023-04-25T05:29:07;5.60;99.90
51902;DHT22;37929;53.218;6.548;2023-04-25T05:31:33;5.90;99.90
51902;DHT22;37929;53.218;6.548;2023-04-25T05:33:58;5.50;99.90
51902;DHT22;37929;53.218;6.548;2023-04-25T05:36:25;5.50;99.90
51902;DHT22;37929;53.218;6.548;2023-04-25T05:38:51;5.50;99.90
51902;DHT22;37929;53.218;6.548;2023-04-25T05:41:17;5.40;99.90
51902;DHT22;37929;53.218;6.548;2023-04-25T05:43:43;5.50;99.90
51902;DHT22;37929;53.218;6.548;2023-04-25T05:46:12;5.60;99.90
51902;DHT22;37929;53.218;6.548;2023-04-25T05:48:39;5.50;99.90
51902;DHT22;37929;53.218;6.548;2023-04-25T05:51:04;5.50;99.90
51902;DHT22;37929;53.218;6.548;2023-04-25T05:53:30;5.90;99.90
51902;DHT22;37929;53.218;6.548;2023-04-25T05:55:56;5.50;99.90
51902;DHT22;37929;53.218;6.548;2023-04-25T05:58:22;5.50;99.90
51902;DHT22;37929;53.218;6.548;2023-04-25T06:00:48;5.90;99.90
51902;DHT22;37929;53.218;6.548;2023-04-25T06:03:13;5.60;99.90
51902;DHT22;37929;53.218;6.548;2023-04-25T06:05:42;5.60;99.90
51902;DHT22;37929;53.218;6.548;2023-04-25T06:08:09;5.60;99.90
51902;DHT22;37929;53.218;6.548;2023-04-25T06:10:36;6.30;99.90
51902;DHT22;37929;53.218;6.548;2023-04-25T06:13:02;6.10;99.90
51902;DHT22;37929;53.218;6.548;2023-04-25T06:15:28;5.70;99.90
51902;DHT22;37929;53.218;6.548;2023-04-25T06:17:54;5.70;99.90
51902;DHT22;37929;53.218;6.548;2023-04-25T06:20:20;5.70;99.90
51902;DHT22;37929;53.218;6.548;2023-04-25T06:22:49;6.20;99.90
51902;DHT22;37929;53.218;6.548;2023-04-25T06:25:15;5.70;99.90
51902;DHT22;37929;53.218;6.548;2023-04-25T06:27:41;5.70;99.90
51902;DHT22;37929;53.218;6.548;2023-04-25T06:30:07;6.10;99.90
51902;DHT22;37929;53.218;6.548;2023-04-25T06:32:33;5.80;99.90
51902;DHT22;37929;53.218;6.548;2023-04-25T06:35:00;5.90;99.90
51902;DHT22;37929;53.218;6.548;2023-04-25T06:37:26;6.00;99.90
51902;DHT22;37929;53.218;6.548;2023-04-25T06:39:52;6.90;99.90
51902;DHT22;37929;53.218;6.548;2023-04-25T06:42:17;6.10;99.90
51902;DHT22;37929;53.218;6.548;2023-04-25T06:44:43;6.30;99.90
51902;DHT22;37929;53.218;6.548;2023-04-25T06:47:09;6.70;99.90
51902;DHT22;37929;53.218;6.548;2023-04-25T06:49:35;6.50;99.90
51902;DHT22;37929;53.218;6.548;2023-04-25T06:52:00;7.10;99.90
51902;DHT22;37929;53.218;6.548;2023-04-25T06:54:26;6.60;99.90
51902;DHT22;37929;53.218;6.548;2023-04-25T06:56:55;6.70;99.90
51902;DHT22;37929;53.218;6.548;2023-04-25T06:59:21;6.70;99.90
51902;DHT22;37929;53.218;6.548;2023-04-25T07:01:47;6.90;99.90
51902;DHT22;37929;53.218;6.548;2023-04-25T07:04:13;6.80;99.90
51902;DHT22;37929;53.218;6.548;2023-04-25T07:06:38;6.90;99.90
51902;DHT22;37929;53.218;6.548;2023-04-25T07:09:10;6.90;99.90
51902;DHT22;37929;53.218;6.548;2023-04-25T07:11:36;7.00;99.90
51902;DHT22;37929;53.218;6.548;2023-04-25T07:14:02;7.10;99.90
51902;DHT22;37929;53.218;6.548;2023-04-25T07:16:28;7.10;99.90
51902;DHT22;37929;53.218;6.548;2023-04-25T07:18:54;7.20;99.90
51902;DHT22;37929;53.218;6.548;2023-04-25T07:21:20;7.20;99.90
51902;DHT22;37929;53.218;6.548;2023-04-25T07:23:45;7.30;99.90
51902;DHT22;37929;53.218;6.548;2023-04-25T07:26:11;7.40;99.90
51902;DHT22;37929;53.218;6.548;2023-04-25T07:28:38;7.50;99.90
51902;DHT22;37929;53.218;6.548;2023-04-25T07:31:03;7.60;99.90
51902;DHT22;37929;53.218;6.548;2023-04-25T07:33:30;7.60;99.90
51902;DHT22;37929;53.218;6.548;2023-04-25T07:35:56;7.60;99.90
51902;DHT22;37929;53.218;6.548;2023-04-25T07:38:22;7.70;99.90
51902;DHT22;37929;53.218;6.548;2023-04-25T07:40:49;7.70;99.90
51902;DHT22;37929;53.218;6.548;2023-04-25T07:43:15;7.80;99.90
51902;DHT22;37929;53.218;6.548;2023-04-25T07:45:45;7.90;99.90
51902;DHT22;37929;53.218;6.548;2023-04-25T07:48:15;7.90;99.90
51902;DHT22;37929;53.218;6.548;2023-04-25T07:50:41;7.80;99.90
51902;DHT22;37929;53.218;6.548;2023-04-25T07:53:07;7.80;99.90
51902;DHT22;37929;53.218;6.548;2023-04-25T07:55:33;7.80;99.90
51902;DHT22;37929;53.218;6.548;2023-04-25T07:57:58;7.90;99.90
51902;DHT22;37929;53.218;6.548;2023-04-25T08:00:24;7.80;99.90
51902;DHT22;37929;53.218;6.548;2023-04-25T08:02:50;7.90;99.90
51902;DHT22;37929;53.218;6.548;2023-04-25T08:05:16;8.10;99.90
51902;DHT22;37929;53.218;6.548;2023-04-25T08:07:42;8.30;99.90
51902;DHT22;37929;53.218;6.548;2023-04-25T08:10:09;8.40;99.90
51902;DHT22;37929;53.218;6.548;2023-04-25T08:12:35;8.30;99.90
51902;DHT22;37929;53.218;6.548;2023-04-25T08:15:01;8.00;99.90
51902;DHT22;37929;53.218;6.548;2023-04-25T08:17:26;7.80;99.90
51902;DHT22;37929;53.218;6.548;2023-04-25T08:19:52;7.50;99.90
51902;DHT22;37929;53.218;6.548;2023-04-25T08:22:18;7.30;99.90
51902;DHT22;37929;53.218;6.548;2023-04-25T08:24:44;7.10;99.90
51902;DHT22;37929;53.218;6.548;2023-04-25T08:27:10;6.90;99.90
51902;DHT22;37929;53.218;6.548;2023-04-25T08:29:37;6.80;99.90
51902;DHT22;37929;53.218;6.548;2023-04-25T08:32:02;6.80;99.90
51902;DHT22;37929;53.218;6.548;2023-04-25T08:34:28;6.70;99.90
51902;DHT22;37929;53.218;6.548;2023-04-25T08:36:54;6.80;99.90
51902;DHT22;37929;53.218;6.548;2023-04-25T08:39:19;6.80;99.90
51902;DHT22;37929;53.218;6.548;2023-04-25T08:41:46;6.80;99.90
51902;DHT22;37929;53.218;6.548;2023-04-25T08:44:12;6.90;99.90
51902;DHT22;37929;53.218;6.548;2023-04-25T08:46:39;7.00;99.90
51902;DHT22;37929;53.218;6.548;2023-04-25T08:49:08;7.10;99.90
51902;DHT22;37929;53.218;6.548;2023-04-25T08:51:44;7.30;99.90
51902;DHT22;37929;53.218;6.548;2023-04-25T08:54:14;7.50;99.90
51902;DHT22;37929;53.218;6.548;2023-04-25T08:56:43;7.60;99.90
51902;DHT22;37929;53.218;6.548;2023-04-25T08:59:11;7.80;99.90
51902;DHT22;37929;53.218;6.548;2023-04-25T09:01:36;7.90;99.90
51902;DHT22;37929;53.218;6.548;2023-04-25T09:04:02;8.00;99.90
51902;DHT22;37929;53.218;6.548;2023-04-25T09:06:29;8.20;99.90
51902;DHT22;37929;53.218;6.548;2023-04-25T09:09:05;8.40;99.90
51902;DHT22;37929;53.218;6.548;2023-04-25T09:11:35;8.50;99.90
51902;DHT22;37929;53.218;6.548;2023-04-25T09:14:18;9.10;99.90
51902;DHT22;37929;53.218;6.548;2023-04-25T09:16:57;8.90;99.90
51902;DHT22;37929;53.218;6.548;2023-04-25T09:19:31;9.10;99.90
51902;DHT22;37929;53.218;6.548;2023-04-25T09:21:59;9.20;99.90
51902;DHT22;37929;53.218;6.548;2023-04-25T09:27:10;9.30;99.90
51902;DHT22;37929;53.218;6.548;2023-04-25T09:29:38;9.40;99.90
51902;DHT22;37929;53.218;6.548;2023-04-25T09:32:23;9.30;99.90
51902;DHT22;37929;53.218;6.548;2023-04-25T09:34:54;9.00;99.90
51902;DHT22;37929;53.218;6.548;2023-04-25T09:37:23;8.70;99.90
51902;DHT22;37929;53.218;6.548;2023-04-25T09:39:52;8.50;99.90
51902;DHT22;37929;53.218;6.548;2023-04-25T09:42:18;8.40;99.90
51902;DHT22;37929;53.218;6.548;2023-04-25T09:44:47;8.40;99.90
51902;DHT22;37929;53.218;6.548;2023-04-25T09:47:14;8.60;99.90
51902;DHT22;37929;53.218;6.548;2023-04-25T09:49:41;8.80;99.90
51902;DHT22;37929;53.218;6.548;2023-04-25T09:52:28;9.10;99.90
51902;DHT22;37929;53.218;6.548;2023-04-25T09:54:54;9.10;99.90
51902;DHT22;37929;53.218;6.548;2023-04-25T09:57:23;9.10;99.90
51902;DHT22;37929;53.218;6.548;2023-04-25T09:59:51;9.10;99.90
51902;DHT22;37929;53.218;6.548;2023-04-25T10:02:23;9.20;99.90
51902;DHT22;37929;53.218;6.548;2023-04-25T10:04:52;9.40;99.90
51902;DHT22;37929;53.218;6.548;2023-04-25T10:07:22;9.60;99.90
51902;DHT22;37929;53.218;6.548;2023-04-25T10:09:57;9.80;99.90
51902;DHT22;37929;53.218;6.548;2023-04-25T10:12:26;9.90;99.90
51902;DHT22;37929;53.218;6.548;2023-04-25T10:14:52;10.10;99.90
51902;DHT22;37929;53.218;6.548;2023-04-25T10:17:20;10.30;99.90
51902;DHT22;37929;53.218;6.548;2023-04-25T10:19:47;10.30;99.90
51902;DHT22;37929;53.218;6.548;2023-04-25T10:22:45;10.20;99.90
51902;DHT22;37929;53.218;6.548;2023-04-25T10:25:12;10.00;99.90
51902;DHT22;37929;53.218;6.548;2023-04-25T10:27:39;9.90;99.90
51902;DHT22;37929;53.218;6.548;2023-04-25T10:30:15;9.70;99.90
51902;DHT22;37929;53.218;6.548;2023-04-25T10:32:44;9.60;99.90
51902;DHT22;37929;53.218;6.548;2023-04-25T10:35:38;9.90;99.90
51902;DHT22;37929;53.218;6.548;2023-04-25T10:38:14;10.10;99.90
51902;DHT22;37929;53.218;6.548;2023-04-25T10:40:39;10.40;99.90
51902;DHT22;37929;53.218;6.548;2023-04-25T10:45:53;10.60;99.90
51902;DHT22;37929;53.218;6.548;2023-04-25T10:48:29;10.40;99.90
51902;DHT22;37929;53.218;6.548;2023-04-25T10:51:11;9.90;99.90
51902;DHT22;37929;53.218;6.548;2023-04-25T10:53:37;9.50;99.90
51902;DHT22;37929;53.218;6.548;2023-04-25T10:56:39;9.10;99.90
51902;DHT22;37929;53.218;6.548;2023-04-25T11:04:03;9.00;99.90
51902;DHT22;37929;53.218;6.548;2023-04-25T11:06:57;9.10;99.90
51902;DHT22;37929;53.218;6.548;2023-04-25T11:09:24;9.20;99.90
51902;DHT22;37929;53.218;6.548;2023-04-25T11:11:57;9.40;99.90
51902;DHT22;37929;53.218;6.548;2023-04-25T11:14:24;9.60;99.90
51902;DHT22;37929;53.218;6.548;2023-04-25T11:16:54;9.80;99.90
51902;DHT22;37929;53.218;6.548;2023-04-25T11:19:21;9.90;99.90
51902;DHT22;37929;53.218;6.548;2023-04-25T11:21:47;10.00;99.90
51902;DHT22;37929;53.218;6.548;2023-04-25T11:24:13;10.10;99.90
51902;DHT22;37929;53.218;6.548;2023-04-25T11:26:41;10.20;99.90
51902;DHT22;37929;53.218;6.548;2023-04-25T11:29:07;10.20;99.90
51902;DHT22;37929;53.218;6.548;2023-04-25T11:31:33;10.30;99.90
51902;DHT22;37929;53.218;6.548;2023-04-25T11:33:59;10.50;99.90
51902;DHT22;37929;53.218;6.548;2023-04-25T11:36:25;10.60;99.90
51902;DHT22;37929;53.218;6.548;2023-04-25T11:38:52;10.60;99.90
51902;DHT22;37929;53.218;6.548;2023-04-25T11:41:21;10.60;99.90
51902;DHT22;37929;53.218;6.548;2023-04-25T11:43:48;10.60;99.90
51902;DHT22;37929;53.218;6.548;2023-04-25T11:46:15;10.50;99.90
51902;DHT22;37929;53.218;6.548;2023-04-25T11:48:42;10.50;99.90
51902;DHT22;37929;53.218;6.548;2023-04-25T11:51:14;10.50;99.90
51902;DHT22;37929;53.218;6.548;2023-04-25T11:53:44;10.60;99.90
51902;DHT22;37929;53.218;6.548;2023-04-25T11:56:11;10.80;99.90
51902;DHT22;37929;53.218;6.548;2023-04-25T11:58:57;11.00;99.90
51902;DHT22;37929;53.218;6.548;2023-04-25T12:01:34;11.10;99.90
51902;DHT22;37929;53.218;6.548;2023-04-25T12:04:14;11.20;99.90
51902;DHT22;37929;53.218;6.548;2023-04-25T12:06:41;11.20;99.90
51902;DHT22;37929;53.218;6.548;2023-04-25T12:09:09;11.40;99.90
51902;DHT22;37929;53.218;6.548;2023-04-25T12:11:43;11.40;99.90
51902;DHT22;37929;53.218;6.548;2023-04-25T12:14:10;11.40;99.90
51902;DHT22;37929;53.218;6.548;2023-04-25T12:16:45;11.20;99.90
51902;DHT22;37929;53.218;6.548;2023-04-25T12:19:15;11.20;99.90
51902;DHT22;37929;53.218;6.548;2023-04-25T12:21:42;11.20;99.90
51902;DHT22;37929;53.218;6.548;2023-04-25T12:24:33;11.30;99.90
51902;DHT22;37929;53.218;6.548;2023-04-25T12:27:01;11.40;99.90
51902;DHT22;37929;53.218;6.548;2023-04-25T12:29:28;11.60;99.90
51902;DHT22;37929;53.218;6.548;2023-04-25T12:31:55;11.80;99.90
51902;DHT22;37929;53.218;6.548;2023-04-25T12:34:22;11.80;99.90
51902;DHT22;37929;53.218;6.548;2023-04-25T12:36:48;11.60;99.90
51902;DHT22;37929;53.218;6.548;2023-04-25T12:39:18;11.30;99.90
51902;DHT22;37929;53.218;6.548;2023-04-25T12:41:45;11.20;99.90
51902;DHT22;37929;53.218;6.548;2023-04-25T12:44:12;11.30;99.90
51902;DHT22;37929;53.218;6.548;2023-04-25T12:46:38;11.30;99.90
51902;DHT22;37929;53.218;6.548;2023-04-25T12:49:04;11.30;99.90
51902;DHT22;37929;53.218;6.548;2023-04-25T12:51:31;11.40;99.90
51902;DHT22;37929;53.218;6.548;2023-04-25T12:53:58;11.50;99.90
51902;DHT22;37929;53.218;6.548;2023-04-25T12:56:26;11.50;99.90
51902;DHT22;37929;53.218;6.548;2023-04-25T12:58:53;11.40;99.90
51902;DHT22;37929;53.218;6.548;2023-04-25T13:01:20;11.50;99.90
51902;DHT22;37929;53.218;6.548;2023-04-25T13:03:46;11.50;99.90
51902;DHT22;37929;53.218;6.548;2023-04-25T13:06:13;11.40;99.90
51902;DHT22;37929;53.218;6.548;2023-04-25T13:08:39;11.30;99.90
51902;DHT22;37929;53.218;6.548;2023-04-25T13:11:06;11.30;99.90
51902;DHT22;37929;53.218;6.548;2023-04-25T13:13:32;11.10;99.90
51902;DHT22;37929;53.218;6.548;2023-04-25T13:16:02;10.90;99.90
51902;DHT22;37929;53.218;6.548;2023-04-25T13:18:30;10.70;99.90
51902;DHT22;37929;53.218;6.548;2023-04-25T13:20:56;10.60;99.90
51902;DHT22;37929;53.218;6.548;2023-04-25T13:23:22;10.60;99.90
51902;DHT22;37929;53.218;6.548;2023-04-25T13:25:49;10.70;99.90
51902;DHT22;37929;53.218;6.548;2023-04-25T13:28:14;10.80;99.90
51902;DHT22;37929;53.218;6.548;2023-04-25T13:30:41;10.90;99.90
51902;DHT22;37929;53.218;6.548;2023-04-25T13:33:07;10.90;99.90
51902;DHT22;37929;53.218;6.548;2023-04-25T13:35:35;11.00;99.90
51902;DHT22;37929;53.218;6.548;2023-04-25T13:38:01;11.10;99.90
51902;DHT22;37929;53.218;6.548;2023-04-25T13:40:27;11.20;99.90
51902;DHT22;37929;53.218;6.548;2023-04-25T13:42:53;11.20;99.90
51902;DHT22;37929;53.218;6.548;2023-04-25T13:45:19;11.10;99.90
51902;DHT22;37929;53.218;6.548;2023-04-25T13:47:46;11.10;99.90
51902;DHT22;37929;53.218;6.548;2023-04-25T13:50:11;11.10;99.90
51902;DHT22;37929;53.218;6.548;2023-04-25T13:52:41;11.20;99.90
51902;DHT22;37929;53.218;6.548;2023-04-25T13:55:08;11.30;99.90
51902;DHT22;37929;53.218;6.548;2023-04-25T13:57:35;11.20;99.90
51902;DHT22;37929;53.218;6.548;2023-04-25T14:00:01;11.20;99.90
51902;DHT22;37929;53.218;6.548;2023-04-25T14:02:32;11.10;99.90
51902;DHT22;37929;53.218;6.548;2023-04-25T14:04:58;11.10;99.90
51902;DHT22;37929;53.218;6.548;2023-04-25T14:07:24;11.10;99.90
51902;DHT22;37929;53.218;6.548;2023-04-25T14:09:50;11.20;99.90
51902;DHT22;37929;53.218;6.548;2023-04-25T14:12:16;11.20;99.90
51902;DHT22;37929;53.218;6.548;2023-04-25T14:14:41;11.10;99.90
51902;DHT22;37929;53.218;6.548;2023-04-25T14:17:08;11.00;99.90
51902;DHT22;37929;53.218;6.548;2023-04-25T14:19:34;10.90;99.90
51902;DHT22;37929;53.218;6.548;2023-04-25T14:22:00;10.80;99.90
51902;DHT22;37929;53.218;6.548;2023-04-25T14:24:26;10.80;99.90
51902;DHT22;37929;53.218;6.548;2023-04-25T14:26:51;10.80;99.90
51902;DHT22;37929;53.218;6.548;2023-04-25T14:29:17;10.80;99.90
51902;DHT22;37929;53.218;6.548;2023-04-25T14:31:43;10.90;99.90
51902;DHT22;37929;53.218;6.548;2023-04-25T14:34:10;10.70;99.90
51902;DHT22;37929;53.218;6.548;2023-04-25T14:36:36;10.60;99.90
51902;DHT22;37929;53.218;6.548;2023-04-25T14:39:02;10.60;99.90
51902;DHT22;37929;53.218;6.548;2023-04-25T14:41:30;10.60;99.90
51902;DHT22;37929;53.218;6.548;2023-04-25T14:43:56;10.60;99.90
51902;DHT22;37929;53.218;6.548;2023-04-25T14:46:22;10.80;99.90
51902;DHT22;37929;53.218;6.548;2023-04-25T14:48:49;10.90;99.90
51902;DHT22;37929;53.218;6.548;2023-04-25T14:51:14;10.80;99.90
51902;DHT22;37929;53.218;6.548;2023-04-25T14:53:41;10.80;99.90
51902;DHT22;37929;53.218;6.548;2023-04-25T14:56:07;10.70;99.90
51902;DHT22;37929;53.218;6.548;2023-04-25T14:58:34;10.60;99.90
51902;DHT22;37929;53.218;6.548;2023-04-25T15:01:00;10.50;99.90
51902;DHT22;37929;53.218;6.548;2023-04-25T15:03:26;10.60;99.90
51902;DHT22;37929;53.218;6.548;2023-04-25T15:05:54;10.70;99.90
51902;DHT22;37929;53.218;6.548;2023-04-25T15:08:20;10.70;99.90
51902;DHT22;37929;53.218;6.548;2023-04-25T15:10:46;10.80;99.90
51902;DHT22;37929;53.218;6.548;2023-04-25T15:13:12;10.80;99.90
51902;DHT22;37929;53.218;6.548;2023-04-25T15:15:38;10.80;99.90
51902;DHT22;37929;53.218;6.548;2023-04-25T15:18:04;10.90;99.90
51902;DHT22;37929;53.218;6.548;2023-04-25T15:20:30;10.90;99.90
51902;DHT22;37929;53.218;6.548;2023-04-25T15:22:56;10.80;99.90
51902;DHT22;37929;53.218;6.548;2023-04-25T15:25:22;10.70;99.90
51902;DHT22;37929;53.218;6.548;2023-04-25T15:27:48;10.60;99.90
51902;DHT22;37929;53.218;6.548;2023-04-25T15:30:15;10.60;99.90
51902;DHT22;37929;53.218;6.548;2023-04-25T15:32:42;10.60;99.90
51902;DHT22;37929;53.218;6.548;2023-04-25T15:35:08;10.60;99.90
51902;DHT22;37929;53.218;6.548;2023-04-25T15:37:35;10.40;99.90
51902;DHT22;37929;53.218;6.548;2023-04-25T15:40:05;10.40;99.90
51902;DHT22;37929;53.218;6.548;2023-04-25T15:42:35;10.30;99.90
51902;DHT22;37929;53.218;6.548;2023-04-25T15:45:04;10.20;99.90
51902;DHT22;37929;53.218;6.548;2023-04-25T15:47:30;10.20;99.90
51902;DHT22;37929;53.218;6.548;2023-04-25T15:49:55;10.10;99.90
51902;DHT22;37929;53.218;6.548;2023-04-25T15:52:21;10.10;99.90
51902;DHT22;37929;53.218;6.548;2023-04-25T15:54:47;10.20;99.90